DLH9HE LOWS-EDDF
Flight info
| Callsign | DLH9HE |
|---|---|
| Flight time | N/A |
| Altitude | 30000 |
| Route | INROM DCT SIMBA Y700 NENUM T161 DEBHI DEBHI1B |
| Aircraft | A20N/M-SDE2E3FGHIRWXY/LB1 |
Departure
| Time | N/A |
|---|---|
| Airport | Salzburg Airport (LOWS) |
Arrival
| Time | 2026-05-06 16:41 |
|---|---|
| Airport | Frankfurt Main Airport (EDDF) |
| Time | Latitude | Longitude | Altitude | Speed | Heading |
|---|---|---|---|---|---|
| 2026-05-06 16:30 | 49.90485 | 9.12573 | 9952 ft | 236 kts | 283° |
| 2026-05-06 16:31 | 49.90946 | 9.10136 | 9960 ft | 236 kts | 284° |
| 2026-05-06 16:31 | 49.91409 | 9.07695 | 9952 ft | 235 kts | 284° |
| 2026-05-06 16:31 | 49.91869 | 9.05269 | 9957 ft | 234 kts | 284° |
| 2026-05-06 16:31 | 49.92329 | 9.02848 | 9951 ft | 233 kts | 283° |
| 2026-05-06 16:32 | 49.92783 | 9.00441 | 9952 ft | 232 kts | 284° |
| 2026-05-06 16:32 | 49.93235 | 8.98043 | 9969 ft | 232 kts | 284° |
| 2026-05-06 16:32 | 49.93688 | 8.95635 | 9712 ft | 233 kts | 284° |
| 2026-05-06 16:32 | 49.94166 | 8.93177 | 9070 ft | 245 kts | 288° |
| 2026-05-06 16:33 | 49.95196 | 8.90957 | 8111 ft | 272 kts | 320° |
| 2026-05-06 16:33 | 49.97039 | 8.89814 | 6886 ft | 306 kts | 351° |
| 2026-05-06 16:33 | 49.99248 | 8.90270 | 5498 ft | 339 kts | 21° |
| 2026-05-06 16:34 | 50.02527 | 8.95517 | 4132 ft | 340 kts | 57° |
| 2026-05-06 16:34 | 50.03666 | 8.98623 | 3985 ft | 321 kts | 62° |
| 2026-05-06 16:34 | 50.04754 | 9.01515 | 3972 ft | 299 kts | 51° |
| 2026-05-06 16:34 | 50.06280 | 9.03492 | 3971 ft | 276 kts | 24° |
| 2026-05-06 16:35 | 50.08060 | 9.04116 | 3973 ft | 253 kts | 354° |
| 2026-05-06 16:35 | 50.09645 | 9.03373 | 3969 ft | 229 kts | 322° |
| 2026-05-06 16:35 | 50.10616 | 9.01618 | 3972 ft | 209 kts | 289° |
| 2026-05-06 16:35 | 50.10971 | 8.99393 | 3996 ft | 218 kts | 276° |
| 2026-05-06 16:36 | 50.11155 | 8.97011 | 3989 ft | 224 kts | 274° |
| 2026-05-06 16:36 | 50.11184 | 8.94598 | 3991 ft | 223 kts | 266° |
| 2026-05-06 16:36 | 50.11071 | 8.92198 | 3995 ft | 222 kts | 263° |
| 2026-05-06 16:36 | 50.10891 | 8.89805 | 3980 ft | 222 kts | 261° |
| 2026-05-06 16:37 | 50.10685 | 8.87421 | 3986 ft | 223 kts | 259° |
| 2026-05-06 16:37 | 50.10305 | 8.85086 | 3966 ft | 223 kts | 251° |
| 2026-05-06 16:37 | 50.09778 | 8.82836 | 3745 ft | 219 kts | 249° |
| 2026-05-06 16:37 | 50.09243 | 8.80605 | 3427 ft | 220 kts | 250° |
| 2026-05-06 16:38 | 50.08725 | 8.78413 | 3095 ft | 219 kts | 250° |
| 2026-05-06 16:38 | 50.08193 | 8.76170 | 2795 ft | 217 kts | 250° |
| 2026-05-06 16:38 | 50.07682 | 8.74035 | 2535 ft | 207 kts | 251° |
| 2026-05-06 16:38 | 50.07182 | 8.71939 | 2218 ft | 201 kts | 251° |
| 2026-05-06 16:39 | 50.06706 | 8.69947 | 1944 ft | 197 kts | 251° |
| 2026-05-06 16:39 | 50.06235 | 8.67971 | 1688 ft | 192 kts | 251° |
| 2026-05-06 16:39 | 50.05777 | 8.66060 | 1448 ft | 186 kts | 252° |
| 2026-05-06 16:39 | 50.05334 | 8.64203 | 1177 ft | 181 kts | 251° |
| 2026-05-06 16:40 | 50.04907 | 8.62423 | 931 ft | 168 kts | 252° |
| 2026-05-06 16:40 | 50.04522 | 8.60810 | 706 ft | 153 kts | 254° |
| 2026-05-06 16:40 | 50.04156 | 8.59271 | 501 ft | 154 kts | 252° |
| 2026-05-06 16:40 | 50.03777 | 8.57718 | 378 ft | 147 kts | 251° |
| 2026-05-06 16:41 | 50.03448 | 8.56326 | 370 ft | 128 kts | 253° |
| 2026-05-06 16:41 | 50.03235 | 8.55427 | 349 ft | 55 kts | 249° |
| 2026-05-06 16:41 | 50.03179 | 8.55009 | 353 ft | 38 kts | 274° |
| 2026-05-06 16:41 | 50.03232 | 8.54642 | 340 ft | 19 kts | 315° |
| 2026-05-06 16:42 | 50.03291 | 8.54672 | 350 ft | 8 kts | 65° |
| 2026-05-06 16:42 | 50.03321 | 8.54770 | 351 ft | 14 kts | 65° |
| 2026-05-06 16:42 | 50.03379 | 8.54957 | 354 ft | 24 kts | 69° |
| 2026-05-06 16:42 | 50.03439 | 8.55246 | 354 ft | 33 kts | 70° |
| 2026-05-06 16:43 | 50.03529 | 8.55618 | 352 ft | 41 kts | 69° |
| 2026-05-06 16:43 | 50.03631 | 8.56057 | 357 ft | 46 kts | 69° |
| 2026-05-06 16:43 | 50.03750 | 8.56546 | 363 ft | 51 kts | 69° |
| 2026-05-06 16:43 | 50.03880 | 8.57086 | 361 ft | 55 kts | 70° |
| 2026-05-06 16:44 | 50.04016 | 8.57654 | 374 ft | 57 kts | 70° |
| 2026-05-06 16:44 | 50.04161 | 8.58250 | 375 ft | 60 kts | 73° |
| 2026-05-06 16:44 | 50.04308 | 8.58872 | 377 ft | 62 kts | 69° |
| 2026-05-06 16:44 | 50.04436 | 8.59417 | 379 ft | 31 kts | 70° |
| 2026-05-06 16:45 | 50.04573 | 8.59466 | 376 ft | 21 kts | 358° |
| 2026-05-06 16:45 | 50.04718 | 8.59433 | 375 ft | 21 kts | 340° |
| 2026-05-06 16:45 | 50.04785 | 8.59394 | 375 ft | 0 kts | 339° |
| 2026-05-06 16:46 | 50.04809 | 8.59379 | 374 ft | 9 kts | 336° |
| 2026-05-06 16:47 | 50.04842 | 8.59275 | 372 ft | 13 kts | 262° |
| 2026-05-06 16:47 | 50.04836 | 8.59253 | 372 ft | 0 kts | 246° |
| 2026-05-06 16:47 | 50.04821 | 8.59169 | 373 ft | 16 kts | 253° |
| 2026-05-06 16:47 | 50.04827 | 8.59077 | 372 ft | 4 kts | 319° |
| 2026-05-06 16:48 | 50.04852 | 8.59062 | 369 ft | 3 kts | 336° |
| 2026-05-06 16:48 | 50.04875 | 8.59049 | 371 ft | 1 kts | 340° |
| 2026-05-06 16:48 | 50.04877 | 8.59048 | 371 ft | 0 kts | 340° |